createdAt,value
2022-08-31T00:01:43.206Z,15.31
2022-08-31T00:04:13.749Z,15.29
2022-08-31T00:06:43.340Z,15.29
2022-08-31T00:09:12.907Z,15.29
2022-08-31T00:11:42.393Z,15.28
2022-08-31T00:14:15.264Z,15.28
2022-08-31T00:16:47.790Z,15.27
2022-08-31T00:19:17.589Z,15.23
2022-08-31T00:21:47.487Z,15.20
2022-08-31T00:24:17.154Z,15.18
2022-08-31T00:26:46.809Z,15.16
2022-08-31T00:29:16.897Z,15.14
2022-08-31T00:31:48.008Z,15.14
2022-08-31T00:34:17.649Z,15.12
2022-08-31T00:36:47.456Z,15.11
2022-08-31T00:39:17.003Z,15.10
2022-08-31T00:41:47.950Z,15.10
2022-08-31T00:44:17.673Z,15.09
2022-08-31T00:46:48.712Z,15.08
2022-08-31T00:49:23.400Z,15.08
2022-08-31T00:52:00.932Z,15.06
2022-08-31T00:54:35.927Z,15.07
2022-08-31T00:57:08.756Z,15.05
2022-08-31T00:59:39.716Z,15.05
2022-08-31T01:02:10.926Z,15.02
2022-08-31T01:04:40.686Z,15.02
2022-08-31T01:07:10.833Z,15.02
2022-08-31T01:09:52.653Z,15.02
2022-08-31T01:12:27.049Z,15.03
2022-08-31T01:14:58.801Z,15.04
2022-08-31T01:17:30.311Z,15.04
2022-08-31T01:20:13.117Z,15.03
2022-08-31T01:23:05.207Z,15.04
2022-08-31T01:25:36.760Z,15.05
2022-08-31T01:28:09.689Z,15.05
2022-08-31T01:30:43.641Z,15.06
2022-08-31T01:33:13.849Z,15.05
2022-08-31T01:35:46.179Z,15.07
2022-08-31T01:38:17.057Z,15.07
2022-08-31T01:40:52.927Z,15.07
2022-08-31T01:43:22.955Z,15.06
2022-08-31T01:45:53.575Z,15.05
2022-08-31T01:48:24.789Z,15.04
2022-08-31T01:50:54.508Z,15.02
2022-08-31T01:53:25.609Z,15.01
2022-08-31T01:55:55.173Z,15.00
2022-08-31T01:58:24.862Z,14.99
2022-08-31T02:01:33.847Z,15.00
2022-08-31T02:04:07.059Z,15.00
2022-08-31T02:06:38.277Z,14.99
2022-08-31T02:09:09.435Z,15.01
2022-08-31T02:11:39.735Z,15.00
2022-08-31T02:14:10.777Z,14.99
2022-08-31T02:16:42.033Z,15.01
2022-08-31T02:19:12.196Z,14.99
2022-08-31T02:21:42.556Z,14.98
2022-08-31T02:24:13.505Z,14.97
2022-08-31T02:26:43.238Z,14.96
2022-08-31T02:29:12.750Z,14.96
2022-08-31T02:31:42.545Z,14.95
2022-08-31T02:34:12.346Z,14.95
2022-08-31T02:36:42.775Z,14.94
2022-08-31T02:39:15.007Z,14.93
2022-08-31T02:41:44.742Z,14.92
2022-08-31T02:44:14.369Z,14.92
2022-08-31T02:46:44.495Z,14.92
2022-08-31T02:49:37.262Z,14.93
2022-08-31T02:52:06.777Z,14.93
2022-08-31T02:54:37.745Z,14.94
2022-08-31T02:57:07.637Z,14.95
2022-08-31T02:59:37.173Z,14.96
2022-08-31T03:02:06.974Z,14.95
2022-08-31T03:04:39.537Z,14.94
2022-08-31T03:07:09.660Z,14.93
2022-08-31T03:09:40.537Z,14.95
2022-08-31T03:12:13.444Z,14.94
2022-08-31T03:14:43.056Z,14.95
2022-08-31T03:17:12.561Z,14.95
2022-08-31T03:19:42.215Z,14.94
2022-08-31T03:22:13.320Z,14.95
2022-08-31T03:24:44.974Z,14.97
2022-08-31T03:27:14.453Z,14.97
2022-08-31T03:29:43.972Z,14.98
2022-08-31T03:32:21.890Z,14.95
2022-08-31T03:34:57.083Z,14.97
2022-08-31T03:37:27.834Z,14.97
2022-08-31T03:40:03.007Z,14.98
2022-08-31T03:42:33.992Z,14.97
2022-08-31T03:45:04.921Z,14.97
2022-08-31T03:47:44.481Z,14.97
2022-08-31T03:50:16.241Z,14.96
2022-08-31T03:53:10.499Z,14.96
2022-08-31T03:55:43.972Z,14.96
2022-08-31T03:58:13.961Z,14.96
2022-08-31T04:00:45.193Z,14.97
2022-08-31T04:03:32.021Z,14.98
2022-08-31T04:06:31.050Z,14.99
2022-08-31T04:09:23.772Z,14.97
2022-08-31T04:12:21.110Z,14.95
2022-08-31T04:15:14.074Z,14.95
2022-08-31T04:18:09.929Z,14.96
2022-08-31T04:20:46.591Z,14.98
2022-08-31T04:23:16.200Z,14.99
2022-08-31T04:25:53.886Z,14.99
2022-08-31T04:28:25.281Z,14.99
2022-08-31T04:30:55.240Z,14.99
2022-08-31T04:33:24.832Z,15.02
2022-08-31T04:35:54.416Z,14.99
2022-08-31T04:38:23.933Z,15.00
2022-08-31T04:40:53.401Z,15.00
2022-08-31T04:43:25.050Z,15.02
2022-08-31T04:45:54.610Z,15.05
2022-08-31T04:48:24.202Z,15.05
2022-08-31T04:51:02.023Z,15.04
2022-08-31T04:53:31.814Z,15.03
2022-08-31T04:56:14.602Z,15.04
2022-08-31T04:58:52.181Z,15.04
2022-08-31T05:01:26.025Z,15.05
2022-08-31T05:04:16.492Z,15.06
2022-08-31T05:06:47.873Z,15.08
2022-08-31T05:09:22.421Z,15.07
2022-08-31T05:11:54.655Z,15.09
2022-08-31T05:14:26.597Z,15.11
2022-08-31T05:17:02.508Z,15.12
2022-08-31T05:19:37.976Z,15.14
2022-08-31T05:22:10.022Z,15.17
2022-08-31T05:24:41.693Z,15.20
2022-08-31T05:27:11.599Z,15.23
2022-08-31T05:29:43.382Z,15.27
2022-08-31T05:32:37.900Z,15.31
2022-08-31T05:35:09.683Z,15.36
2022-08-31T05:37:40.469Z,15.43
2022-08-31T05:40:13.183Z,15.48
2022-08-31T05:42:43.335Z,15.54
2022-08-31T05:45:14.494Z,15.59
2022-08-31T05:47:45.203Z,15.64
2022-08-31T05:50:14.845Z,15.70
2022-08-31T05:52:45.721Z,15.76
2022-08-31T05:55:15.401Z,15.81
2022-08-31T05:57:45.112Z,15.87
2022-08-31T06:00:17.162Z,15.92
2022-08-31T06:02:53.978Z,15.95
2022-08-31T06:05:23.970Z,15.99
2022-08-31T06:07:54.485Z,16.02
2022-08-31T06:10:25.226Z,16.04
2022-08-31T06:12:54.856Z,16.09
2022-08-31T06:15:26.493Z,16.11
2022-08-31T06:17:56.136Z,16.12
2022-08-31T06:20:27.291Z,16.13
2022-08-31T06:22:57.096Z,16.14
2022-08-31T06:25:37.648Z,16.17
2022-08-31T06:28:08.889Z,16.20
2022-08-31T06:30:54.489Z,16.23
2022-08-31T06:33:25.801Z,16.28
2022-08-31T06:36:13.908Z,16.31
2022-08-31T06:39:03.724Z,16.35
2022-08-31T06:41:41.492Z,16.40
2022-08-31T06:44:29.677Z,16.47
2022-08-31T06:47:13.294Z,16.55
2022-08-31T06:49:44.174Z,16.61
2022-08-31T06:52:15.875Z,16.68
2022-08-31T06:54:48.721Z,16.77
2022-08-31T06:57:50.176Z,16.83
2022-08-31T07:00:54.982Z,16.90
2022-08-31T07:03:34.017Z,16.96
2022-08-31T07:06:27.824Z,17.01
2022-08-31T07:09:01.978Z,17.05
2022-08-31T07:11:37.470Z,17.08
2022-08-31T07:14:12.269Z,17.10
2022-08-31T07:16:44.520Z,17.11
2022-08-31T07:19:16.600Z,17.14
2022-08-31T07:21:49.322Z,17.14
2022-08-31T07:24:28.921Z,17.17
2022-08-31T07:27:04.233Z,17.20
2022-08-31T07:29:41.694Z,17.23
2022-08-31T07:32:17.877Z,17.26
2022-08-31T07:34:57.347Z,17.29
2022-08-31T07:38:02.566Z,17.32
2022-08-31T07:40:51.720Z,17.35
2022-08-31T07:43:22.521Z,17.38
2022-08-31T07:45:52.950Z,17.36
2022-08-31T07:48:27.250Z,17.36
2022-08-31T07:51:04.444Z,17.37
2022-08-31T07:53:58.677Z,17.41
2022-08-31T07:56:35.021Z,17.45
2022-08-31T07:59:20.804Z,17.52
2022-08-31T08:01:51.359Z,17.59
2022-08-31T08:04:25.478Z,17.69
2022-08-31T08:07:16.631Z,17.84
2022-08-31T08:10:00.400Z,18.03
2022-08-31T08:12:57.171Z,18.16
2022-08-31T08:15:52.191Z,18.34
2022-08-31T08:18:42.237Z,18.49
2022-08-31T08:21:12.103Z,18.66
2022-08-31T08:23:42.932Z,18.84
2022-08-31T08:26:53.456Z,18.96
2022-08-31T08:29:42.548Z,19.11
2022-08-31T08:32:18.879Z,19.23
2022-08-31T08:34:48.501Z,19.40
2022-08-31T08:37:18.105Z,19.44
2022-08-31T08:39:50.105Z,19.48
2022-08-31T08:42:24.949Z,19.58
2022-08-31T08:44:54.805Z,19.66
2022-08-31T08:47:39.171Z,19.71
2022-08-31T08:50:11.506Z,19.76
2022-08-31T08:52:46.966Z,19.86
2022-08-31T08:55:23.115Z,19.92
2022-08-31T08:57:56.029Z,20.02
2022-08-31T09:00:29.663Z,20.08
2022-08-31T09:03:08.569Z,20.11
2022-08-31T09:06:11.100Z,20.13
2022-08-31T09:09:25.658Z,20.15
2022-08-31T09:12:25.820Z,20.14
2022-08-31T09:15:53.314Z,20.17
2022-08-31T09:18:46.783Z,20.21
2022-08-31T09:21:25.506Z,20.28
2022-08-31T09:24:04.707Z,20.27
2022-08-31T09:27:17.807Z,20.34
2022-08-31T09:29:55.936Z,20.41
2022-08-31T09:32:31.434Z,20.44
2022-08-31T09:35:03.626Z,20.48
2022-08-31T09:37:46.306Z,20.46
2022-08-31T09:40:23.308Z,20.46
2022-08-31T09:43:08.294Z,20.28
2022-08-31T09:45:58.586Z,20.21
2022-08-31T09:48:51.805Z,20.27
2022-08-31T09:51:28.143Z,20.35
2022-08-31T09:54:24.120Z,20.41
2022-08-31T09:56:57.483Z,20.53
2022-08-31T09:59:41.929Z,20.70
2022-08-31T10:02:33.434Z,20.74
2022-08-31T10:05:07.798Z,20.86
2022-08-31T10:07:48.978Z,20.88
2022-08-31T10:10:30.348Z,20.95
2022-08-31T10:13:04.364Z,21.00
2022-08-31T10:15:47.006Z,21.06
2022-08-31T10:18:24.676Z,21.16
2022-08-31T10:21:06.004Z,21.17
2022-08-31T10:23:44.991Z,21.14
2022-08-31T10:26:31.476Z,21.09
2022-08-31T10:29:07.043Z,21.01
2022-08-31T10:31:48.651Z,20.89
2022-08-31T10:34:43.157Z,20.82
2022-08-31T10:37:19.044Z,20.75
2022-08-31T10:39:54.274Z,20.72
2022-08-31T10:42:34.336Z,20.75
2022-08-31T10:45:17.753Z,20.71
2022-08-31T10:47:52.621Z,20.68
2022-08-31T10:50:34.012Z,20.57
2022-08-31T10:53:22.462Z,20.50
2022-08-31T10:56:03.250Z,20.51
2022-08-31T10:58:51.338Z,20.48
2022-08-31T11:01:36.168Z,20.40
2022-08-31T11:04:53.675Z,20.39
2022-08-31T11:07:59.312Z,20.24
2022-08-31T11:10:44.554Z,20.34
2022-08-31T11:13:38.397Z,20.36
2022-08-31T11:16:40.697Z,20.38
2022-08-31T11:19:43.300Z,20.32
2022-08-31T11:23:08.536Z,20.20
2022-08-31T11:26:47.870Z,20.00
2022-08-31T11:29:41.479Z,19.74
2022-08-31T11:32:21.683Z,19.54
2022-08-31T11:34:56.552Z,19.49
2022-08-31T11:37:55.864Z,19.40
2022-08-31T11:41:10.993Z,19.28
2022-08-31T11:43:52.266Z,19.16
2022-08-31T11:47:06.974Z,19.13
2022-08-31T11:49:47.416Z,19.18
2022-08-31T11:52:48.215Z,19.19
2022-08-31T11:55:28.304Z,19.11
2022-08-31T11:58:34.689Z,19.04
2022-08-31T12:01:36.269Z,18.90
2022-08-31T12:04:06.589Z,18.77
2022-08-31T12:07:11.601Z,18.70
2022-08-31T12:10:32.748Z,18.63
2022-08-31T12:13:30.927Z,18.51
2022-08-31T12:16:38.852Z,18.39
2022-08-31T12:19:51.456Z,18.33
2022-08-31T12:23:36.551Z,18.24
2022-08-31T12:26:45.114Z,18.20
2022-08-31T12:29:28.892Z,18.12
2022-08-31T12:32:23.701Z,18.04
2022-08-31T12:35:09.508Z,17.92
2022-08-31T12:37:41.483Z,17.95
2022-08-31T12:40:22.857Z,17.80
2022-08-31T12:43:05.188Z,17.72
2022-08-31T12:46:48.111Z,17.65
2022-08-31T12:49:47.570Z,17.57
2022-08-31T12:52:41.857Z,17.42
2022-08-31T12:55:35.273Z,17.31
2022-08-31T12:58:39.123Z,17.20
2022-08-31T13:01:13.457Z,17.15
2022-08-31T13:03:53.859Z,17.12
2022-08-31T13:06:34.429Z,17.07
2022-08-31T13:09:06.724Z,17.05
2022-08-31T13:11:41.019Z,17.05
2022-08-31T13:14:18.556Z,17.07
2022-08-31T13:16:52.480Z,17.09
2022-08-31T13:19:26.552Z,17.13
2022-08-31T13:22:00.662Z,17.16
2022-08-31T13:24:35.929Z,17.16
2022-08-31T13:27:17.958Z,17.15
2022-08-31T13:29:52.032Z,17.16
2022-08-31T13:32:34.710Z,17.16
2022-08-31T13:35:11.073Z,17.16
2022-08-31T13:38:04.746Z,17.16
2022-08-31T13:40:39.810Z,17.13
2022-08-31T13:43:11.913Z,17.06
2022-08-31T13:45:58.247Z,17.08
2022-08-31T13:48:34.172Z,17.05
2022-08-31T13:51:13.063Z,17.04
2022-08-31T13:53:47.123Z,17.03
2022-08-31T13:56:48.156Z,17.03
2022-08-31T13:59:38.719Z,17.07
2022-08-31T14:02:37.458Z,17.09
2022-08-31T14:05:12.770Z,17.11
2022-08-31T14:08:07.177Z,17.11
2022-08-31T14:10:42.082Z,17.11
2022-08-31T14:13:21.480Z,17.12
2022-08-31T14:15:56.230Z,17.13
2022-08-31T14:18:31.599Z,17.13
2022-08-31T14:21:23.538Z,17.11
2022-08-31T14:24:01.206Z,17.13
2022-08-31T14:26:34.617Z,17.12
2022-08-31T14:29:10.482Z,17.11
2022-08-31T14:31:48.465Z,17.10
2022-08-31T14:34:30.105Z,17.09
2022-08-31T14:37:06.595Z,17.06
2022-08-31T14:39:41.717Z,17.07
2022-08-31T14:42:18.773Z,17.06
2022-08-31T14:44:53.582Z,17.05
2022-08-31T14:47:24.073Z,17.03
2022-08-31T14:49:58.728Z,17.05
2022-08-31T14:52:28.402Z,17.02
2022-08-31T14:54:59.373Z,17.05
2022-08-31T14:57:32.245Z,17.02
2022-08-31T15:00:07.229Z,17.00
2022-08-31T15:02:37.828Z,16.98
2022-08-31T15:05:11.057Z,16.97
2022-08-31T15:07:42.974Z,16.91
2022-08-31T15:10:13.365Z,16.88
2022-08-31T15:12:42.941Z,16.85
2022-08-31T15:15:20.310Z,16.83
2022-08-31T15:18:14.996Z,16.83
2022-08-31T15:20:46.527Z,16.84
2022-08-31T15:23:20.599Z,16.85
2022-08-31T15:25:50.448Z,16.83
2022-08-31T15:28:20.128Z,16.81
2022-08-31T15:30:50.034Z,16.76
2022-08-31T15:33:21.533Z,16.72
2022-08-31T15:36:02.756Z,16.69
2022-08-31T15:38:32.234Z,16.67
2022-08-31T15:41:01.843Z,16.68
2022-08-31T15:43:31.946Z,16.67
2022-08-31T15:46:02.064Z,16.69
2022-08-31T15:48:42.617Z,16.69
2022-08-31T15:51:21.696Z,16.72
2022-08-31T15:54:20.832Z,16.72
2022-08-31T15:56:46.728Z,16.75
2022-08-31T15:59:16.220Z,16.76
2022-08-31T16:01:45.839Z,16.77
2022-08-31T16:04:23.629Z,16.77
2022-08-31T16:06:55.499Z,16.74
2022-08-31T16:09:25.141Z,16.74
2022-08-31T16:11:54.839Z,16.70
2022-08-31T16:14:24.797Z,16.69
2022-08-31T16:16:55.066Z,16.65
2022-08-31T16:19:35.035Z,16.64
2022-08-31T16:22:08.712Z,16.63
2022-08-31T16:24:39.628Z,16.61
2022-08-31T16:27:15.834Z,16.59
2022-08-31T16:29:50.712Z,16.56
2022-08-31T16:32:20.964Z,16.54
2022-08-31T16:34:50.545Z,16.55
2022-08-31T16:37:22.024Z,16.51
2022-08-31T16:39:51.653Z,16.49
2022-08-31T16:42:21.137Z,16.45
2022-08-31T16:44:50.866Z,16.41
2022-08-31T16:47:21.447Z,16.40
2022-08-31T16:49:52.227Z,16.40
2022-08-31T16:52:26.675Z,16.40
2022-08-31T16:54:57.311Z,16.40
2022-08-31T16:57:32.555Z,16.38
2022-08-31T17:00:04.713Z,16.37
2022-08-31T17:02:34.398Z,16.36
2022-08-31T17:05:04.742Z,16.34
2022-08-31T17:07:35.748Z,16.32
2022-08-31T17:10:06.979Z,16.31
2022-08-31T17:12:38.213Z,16.29
2022-08-31T17:15:13.804Z,16.27
2022-08-31T17:17:46.176Z,16.24
2022-08-31T17:20:16.427Z,16.19
2022-08-31T17:22:48.467Z,16.16
2022-08-31T17:25:18.596Z,16.10
2022-08-31T17:27:48.057Z,16.06
2022-08-31T17:30:20.828Z,16.02
2022-08-31T17:32:50.320Z,16.02
2022-08-31T17:35:20.081Z,16.05
2022-08-31T17:37:51.062Z,16.07
2022-08-31T17:40:21.164Z,16.09
2022-08-31T17:42:51.944Z,16.11
2022-08-31T17:45:21.579Z,16.13
2022-08-31T17:47:51.054Z,16.14
2022-08-31T17:50:21.239Z,16.15
2022-08-31T17:52:53.987Z,16.13
2022-08-31T17:55:23.544Z,16.15
2022-08-31T17:57:53.125Z,16.13
2022-08-31T18:00:22.931Z,16.13
2022-08-31T18:02:52.388Z,16.10
2022-08-31T18:05:22.777Z,16.09
2022-08-31T18:07:53.663Z,16.08
2022-08-31T18:10:23.609Z,16.06
2022-08-31T18:12:53.165Z,16.06
2022-08-31T18:15:23.560Z,16.03
2022-08-31T18:17:55.692Z,16.01
2022-08-31T18:20:25.246Z,15.98
2022-08-31T18:22:56.153Z,15.96
2022-08-31T18:25:26.797Z,15.95
2022-08-31T18:27:57.084Z,15.89
2022-08-31T18:30:26.758Z,15.84
2022-08-31T18:32:56.809Z,15.83
2022-08-31T18:35:30.949Z,15.80
2022-08-31T18:38:06.261Z,15.75
2022-08-31T18:40:56.440Z,15.72
2022-08-31T18:43:43.573Z,15.70
2022-08-31T18:46:13.089Z,15.69
2022-08-31T18:49:01.063Z,15.65
2022-08-31T18:51:40.660Z,15.62
2022-08-31T18:54:13.373Z,15.60
2022-08-31T18:56:43.741Z,15.57
2022-08-31T18:59:13.595Z,15.54
2022-08-31T19:01:44.094Z,15.53
2022-08-31T19:04:17.628Z,15.50
2022-08-31T19:06:50.862Z,15.45
2022-08-31T19:09:24.047Z,15.42
2022-08-31T19:11:57.109Z,15.41
2022-08-31T19:14:27.838Z,15.38
2022-08-31T19:17:01.140Z,15.36
2022-08-31T19:19:33.941Z,15.35
2022-08-31T19:22:03.675Z,15.33
2022-08-31T19:24:35.849Z,15.30
2022-08-31T19:27:05.672Z,15.26
2022-08-31T19:29:35.552Z,15.22
2022-08-31T19:32:08.584Z,15.20
2022-08-31T19:34:43.137Z,15.18
2022-08-31T19:37:15.507Z,15.16
2022-08-31T19:39:46.762Z,15.16
2022-08-31T19:42:16.949Z,15.16
2022-08-31T19:44:55.747Z,15.15
2022-08-31T19:47:38.749Z,15.17
2022-08-31T19:50:17.058Z,15.18
2022-08-31T19:52:47.433Z,15.18
2022-08-31T19:55:19.016Z,15.16
2022-08-31T19:57:48.506Z,15.16
2022-08-31T20:00:19.962Z,15.15
2022-08-31T20:02:49.483Z,15.14
2022-08-31T20:05:20.915Z,15.15
2022-08-31T20:07:50.533Z,15.11
2022-08-31T20:10:27.117Z,15.10
2022-08-31T20:12:59.790Z,15.08
2022-08-31T20:15:29.443Z,15.08
2022-08-31T20:17:58.936Z,15.10
2022-08-31T20:20:28.904Z,15.09
2022-08-31T20:22:58.658Z,15.10
2022-08-31T20:25:29.732Z,15.07
2022-08-31T20:27:59.421Z,15.03
2022-08-31T20:30:28.961Z,15.00
2022-08-31T20:32:58.412Z,14.95
2022-08-31T20:35:32.024Z,14.90
2022-08-31T20:38:01.558Z,14.85
2022-08-31T20:40:33.339Z,14.82
2022-08-31T20:43:08.498Z,14.82
2022-08-31T20:45:38.994Z,14.82
2022-08-31T20:48:28.444Z,14.82
2022-08-31T20:50:59.250Z,14.82
2022-08-31T20:53:43.280Z,14.82
2022-08-31T20:56:18.289Z,14.81
2022-08-31T20:58:48.328Z,14.82
2022-08-31T21:01:17.799Z,14.86
2022-08-31T21:03:48.121Z,14.89
2022-08-31T21:06:17.600Z,14.89
2022-08-31T21:08:47.078Z,14.87
2022-08-31T21:11:21.668Z,14.84
2022-08-31T21:13:52.957Z,14.82
2022-08-31T21:16:25.028Z,14.83
2022-08-31T21:18:54.957Z,14.85
2022-08-31T21:21:24.432Z,14.85
2022-08-31T21:23:54.080Z,14.88
2022-08-31T21:26:29.105Z,14.88
2022-08-31T21:28:59.782Z,14.89
2022-08-31T21:31:29.994Z,14.87
2022-08-31T21:34:02.985Z,14.83
2022-08-31T21:36:34.227Z,14.80
2022-08-31T21:39:06.197Z,14.78
2022-08-31T21:41:38.101Z,14.73
2022-08-31T21:44:09.113Z,14.74
2022-08-31T21:46:41.814Z,14.74
2022-08-31T21:49:12.092Z,14.75
2022-08-31T21:51:48.593Z,14.75
2022-08-31T21:54:21.896Z,14.78
2022-08-31T21:56:56.420Z,14.78
2022-08-31T21:59:29.749Z,14.79
2022-08-31T22:02:00.281Z,14.81
2022-08-31T22:04:32.789Z,14.79
2022-08-31T22:07:03.025Z,14.80
2022-08-31T22:09:33.604Z,14.79
2022-08-31T22:12:07.399Z,14.79
2022-08-31T22:14:41.223Z,14.79
2022-08-31T22:17:10.927Z,14.78
2022-08-31T22:19:40.952Z,14.79
2022-08-31T22:22:13.745Z,14.80
2022-08-31T22:24:43.460Z,14.81
2022-08-31T22:27:16.167Z,14.82
2022-08-31T22:29:45.660Z,14.82
2022-08-31T22:32:16.369Z,14.82
2022-08-31T22:34:46.292Z,14.83
2022-08-31T22:37:16.441Z,14.82
2022-08-31T22:39:45.953Z,14.82
2022-08-31T22:42:16.842Z,14.84
2022-08-31T22:44:46.573Z,14.83
2022-08-31T22:47:16.045Z,14.85
2022-08-31T22:49:45.661Z,14.86
2022-08-31T22:52:17.428Z,14.86
2022-08-31T22:54:47.066Z,14.88
2022-08-31T22:57:18.461Z,14.87
2022-08-31T22:59:48.194Z,14.86
2022-08-31T23:02:18.516Z,14.87
2022-08-31T23:04:50.071Z,14.87
2022-08-31T23:07:19.757Z,14.86
2022-08-31T23:09:49.292Z,14.85
2022-08-31T23:12:20.261Z,14.84
2022-08-31T23:14:49.787Z,14.83
2022-08-31T23:17:19.266Z,14.82
2022-08-31T23:19:52.184Z,14.81
2022-08-31T23:22:24.585Z,14.79
2022-08-31T23:24:58.425Z,14.78
2022-08-31T23:27:30.171Z,14.76
2022-08-31T23:30:00.401Z,14.78
2022-08-31T23:32:33.693Z,14.76
2022-08-31T23:35:04.257Z,14.75
2022-08-31T23:37:34.012Z,14.76
2022-08-31T23:40:05.997Z,14.75
2022-08-31T23:42:41.152Z,14.75
2022-08-31T23:45:12.632Z,14.76
2022-08-31T23:47:42.206Z,14.77
2022-08-31T23:50:14.667Z,14.78
2022-08-31T23:52:45.769Z,14.77
2022-08-31T23:55:15.789Z,14.76
2022-08-31T23:57:58.145Z,14.74
